Weerstation Emmen Zuid-West, eerder bekend als weerstation Assen Zuid-West


Webcam Weerstation Emmen Zuid-West Meer informatie Webcam Weerstation Emmen Zuid-West


Onweer radar Meer informatie blitzortung!


Regen radar  rain snow radar


Lokaal brand risico:
CBI


Regionaal brand risico: Meer informatie


Lokaal brand risico:
CBI



Het weer levert geen direct gevaar op.    Er zijn geen waarschuwingen afgegeven.

METAR rapporten vliegvelden

   
ETWM - Meppen, Germany
Afstand tot: O 29 km
Gewijzigd: 26-05-2018 01:20
  
  
   Wind: ONO 11.1 km/h
Wind: ONO 11.1 km/h
Temperatuur: 19°C
Dauwpunt: 10°C
Vochtigheid: 56%
Barometer: 1020 hPa
Zicht: meer dan 10 km
ETWM 252320Z AUTO 06006KT 9999 // ////// 19/10 Q1020 ///
EHGG - Groningen/Eelde, Netherlands
Afstand tot: NNW 47 km
Gewijzigd: 26-05-2018 01:55
Gedeeltelijk bewolkt  
Gedeeltelijk bewolkt  
   Wind: Oosten 13 km/h
Wind: Oosten 13 km/h
Temperatuur: 17°C
Dauwpunt: 9°C
Vochtigheid: 59%
Barometer: 1020 hPa
Bewolking: Gedeeltelijk bewolkt
Zicht: meer dan 10 km
Bewolking: Gedeeltelijk bewolkt
EHGG 252355Z AUTO 08007KT 040V110 9999 NSC 17/09 Q1020
EDDG - Muenster/Osnabru, Germany
Afstand tot: ZO 87 km
Gewijzigd: 26-05-2018 01:50
Helder  
Helder  
   Wind: NO 7.4 km/h
Wind: NO 7.4 km/h
Temperatuur: 19°C
Dauwpunt: 14°C
Vochtigheid: 73%
Barometer: 1019 hPa
Zicht: meer dan 10 km
Bewolking: Helder
EDDG 252350Z 04004KT 010V090 CAVOK 19/14 Q1019 NOSIG
EHLW - Leeuwarden Rnlaf, Netherlands
Afstand tot: NW 93 km
Gewijzigd: 26-05-2018 01:55
Bewolking  
Bewolking  
   Wind: ONO 16.7 km/h
Wind: ONO 16.7 km/h
Temperatuur: 16°C
Dauwpunt: 9°C
Vochtigheid: 63%
Barometer: 1020 hPa
Bewolking: Bewolking
Zicht: meer dan 10 km
Bewolking: Grotendeels bewolkt 12000 ft,
Bewolking 32000 ft
EHLW 252355Z AUTO 07009KT 020V120 9999 BKN120 OVC320 16/09 Q1020 BLU
ETNT - Wittmundhaven(Ga, Germany
Afstand tot: NNO 100 km
Gewijzigd: 26-05-2018 01:20
Gedeeltelijk bewolkt  
Gedeeltelijk bewolkt  
   Wind: Oosten 14.8 km/h
Wind: Oosten 14.8 km/h
Temperatuur: 16°C
Dauwpunt: 8°C
Vochtigheid: 59%
Barometer: 1022 hPa
Bewolking: Gedeeltelijk bewolkt
Zicht: meer dan 10 km
Bewolking: Licht bewolkt 7000 ft,
Gedeeltelijk bewolkt 28000 ft
ETNT 252320Z 08008KT 9999 FEW070 SCT280 16/08 Q1022 BLU+
ETND - Diepholz (ger-Af, Germany
Afstand tot: O 104 km
Gewijzigd: 25-05-2018 11:20
Verouderd
Grotendeels bewolkt  
Grotendeels bewolkt  
   Wind: OZO 25.9 km/h
Wind: OZO 25.9 km/h
Temperatuur: 23°C
Dauwpunt: 11°C
Vochtigheid: 47%
Barometer: 1019 hPa
Bewolking: Grotendeels bewolkt
Zicht: meer dan 10 km
Bewolking: Licht bewolkt 6000 ft,
Gedeeltelijk bewolkt 10000 ft,
Grotendeels bewolkt 30000 ft
ETND 250920Z 12014KT 9999 FEW060 SCT100 BKN300 23/11 Q1019 BLU+
ETNT - Wittmundhaven(Ga, Germany
Afstand tot: NNO 102 km
Gewijzigd: 26-05-2018 01:20
Gedeeltelijk bewolkt  
Gedeeltelijk bewolkt  
   Wind: Oosten 14.8 km/h
Wind: Oosten 14.8 km/h
Temperatuur: 16°C
Dauwpunt: 8°C
Vochtigheid: 59%
Barometer: 1022 hPa
Bewolking: Gedeeltelijk bewolkt
Zicht: meer dan 10 km
Bewolking: Licht bewolkt 7000 ft,
Gedeeltelijk bewolkt 28000 ft
ETNT 252320Z 08008KT 9999 FEW070 SCT280 16/08 Q1022 BLU+
EHDL - Deelen Rnlafb, Netherlands
Afstand tot: ZW 103 km
Gewijzigd: 26-05-2018 01:55
Grotendeels bewolkt  
Grotendeels bewolkt  
   Wind: ONO 5.6 km/h
Wind: ONO 5.6 km/h
Temperatuur: 17°C
Dauwpunt: 14°C
Vochtigheid: 83%
Barometer: 1019 hPa
Bewolking: Grotendeels bewolkt
Zicht: meer dan 10 km
Bewolking: Grotendeels bewolkt 29000 ft
EHDL 252355Z AUTO 06003KT 020V090 9999 BKN290 17/14 Q1019 BLU
EHMA - Awg-1 Sea, Netherlands
Afstand tot: NW 105 km
Gewijzigd: 26-05-2018 01:55
Gedeeltelijk bewolkt  
Gedeeltelijk bewolkt  
   Wind: varieert 25.9 km/h
Wind: varieert 25.9 km/h
Temperatuur: 17°C
Dauwpunt: 13°C
Vochtigheid: 77%
Barometer: 1021 hPa
Bewolking: Gedeeltelijk bewolkt
Zicht: meer dan 10 km
Bewolking: Gedeeltelijk bewolkt
EHMA 252355Z AUTO VRB14KT 9999 NSC 17/13 Q1021 W///H///
EDDW - Bremen, Germany
Afstand tot: ONO 135 km
Gewijzigd: 26-05-2018 01:50
Helder  
Helder  
   Wind: ONO 13 km/h
Wind: ONO 13 km/h
Temperatuur: 15°C
Dauwpunt: 8°C
Vochtigheid: 63%
Barometer: 1021 hPa
Zicht: meer dan 10 km
Bewolking: Helder
EDDW 252350Z 07007KT CAVOK 15/08 Q1021
EHVL - Vlieland Island, Netherlands
Afstand tot: WNW 138 km
Gewijzigd: 26-05-2018 01:55
Bewolking  
Bewolking  
   Wind: Oosten 29.6 km/h
Wind: Oosten 29.6 km/h
Temperatuur: 18°C
Dauwpunt: 13°C
Vochtigheid: 73%
Barometer: 1020 hPa
Bewolking: Bewolking
Zicht: meer dan 10 km
Bewolking: Grotendeels bewolkt 8400 ft,
Bewolking 9100 ft
EHVL 252355Z AUTO 08016KT 9999 BKN084 OVC091 18/13 Q1020 BLU
EDLV - Niederrhein, Germany
Afstand tot: ZZW 139 km
Gewijzigd: 25-05-2018 23:50
Verouderd
Helder  
Helder  
   Wind: varieert 5.6 km/h
Wind: varieert 5.6 km/h
Temperatuur: 20°C
Dauwpunt: 16°C
Vochtigheid: 78%
Barometer: 1018 hPa
Zicht: meer dan 10 km
Bewolking: Helder
EDLV 252150Z VRB03KT CAVOK 20/16 Q1018
EHKD - De Kooy (navy), Netherlands
Afstand tot: W 144 km
Gewijzigd: 26-05-2018 01:55
Bewolking  
Bewolking  
   Wind: ONO 13 km/h
Wind: ONO 13 km/h
Temperatuur: 18°C
Dauwpunt: 15°C
Vochtigheid: 83%
Barometer: 1020 hPa
Bewolking: Bewolking
Zicht: meer dan 10 km
Bewolking: Bewolking 12000 ft
EHKD 252355Z AUTO 07007KT 040V100 9999 OVC120 18/15 Q1020 BLU
EDLW - Dortmund/Wickede, Germany
Afstand tot: ZZO 150 km
Gewijzigd: 25-05-2018 21:50
Verouderd
Helder  
Helder  
   Wind: ONO 9.3 km/h
Wind: ONO 9.3 km/h
Temperatuur: 20°C
Dauwpunt: 16°C
Vochtigheid: 78%
Barometer: 1018 hPa
Zicht: meer dan 10 km
Bewolking: Helder
EDLW 251950Z 07005KT CAVOK 20/16 Q1018
EHVK - Volkel Rnlafb, Netherlands
Afstand tot: ZZW 149 km
Gewijzigd: 26-05-2018 01:55
Grotendeels bewolkt  
Grotendeels bewolkt  
   Wind: NNO 5.6 km/h
Wind: NNO 5.6 km/h
Temperatuur: 16°C
Dauwpunt: 15°C
Vochtigheid: 94%
Barometer: 1018 hPa
Bewolking: Grotendeels bewolkt
Zicht: meer dan 10 km
Bewolking: Grotendeels bewolkt 28000 ft
EHVK 252355Z AUTO 03003KT 9999 BKN280 16/15 Q1018 BLU
EDLW - Dortmund/Wickede, Germany
Afstand tot: ZZO 150 km
Gewijzigd: 25-05-2018 21:50
Verouderd
Helder  
Helder  
   Wind: ONO 9.3 km/h
Wind: ONO 9.3 km/h
Temperatuur: 20°C
Dauwpunt: 16°C
Vochtigheid: 78%
Barometer: 1018 hPa
Zicht: meer dan 10 km
Bewolking: Helder
EDLW 251950Z 07005KT CAVOK 20/16 Q1018
EHMG - L9-Ff-1 Sea, Netherlands
Afstand tot: NW 155 km
Gewijzigd: 26-05-2018 01:55
Gedeeltelijk bewolkt  
Gedeeltelijk bewolkt  
   Wind: Oosten 63 km/h
Wind: Oosten 63 km/h
Temperatuur: 16°C
Dauwpunt: 10°C
Vochtigheid: 68%
Barometer: 1020 hPa
Bewolking: Gedeeltelijk bewolkt
Zicht: meer dan 10 km
Bewolking: Gedeeltelijk bewolkt
EHMG 252355Z AUTO 08034KT 9999 NSC 16/10 Q1020 W///H///
ETHB - Buckeburg(Ger-Ar, Germany
Afstand tot: OZO 161 km
Gewijzigd: 26-05-2018 01:20
  
  
   Wind: Oosten 14.8 km/h
Wind: Oosten 14.8 km/h
Temperatuur: 18°C
Dauwpunt: 9°C
Vochtigheid: 56%
Barometer: 1020 hPa
Zicht: 5 km
ETHB 252320Z AUTO 08008KT 5000 // ////// 18/09 Q1020 ///
ETMN - Nordholz (ger-Na, Germany
Afstand tot: NO 164 km
Gewijzigd: 26-05-2018 01:20
Grotendeels bewolkt  
Grotendeels bewolkt  
   Wind: Oosten 16.7 km/h
Wind: Oosten 16.7 km/h
Temperatuur: 14°C
Dauwpunt: 6°C
Vochtigheid: 59%
Barometer: 1023 hPa
Bewolking: Grotendeels bewolkt
Zicht: meer dan 10 km
Bewolking: Grotendeels bewolkt 26000 ft
ETMN 252320Z 09009KT 9999 BKN260 14/06 Q1023 BLU+
EDDL - Duesseldorf, Germany
Afstand tot: Z 165 km
Gewijzigd: 26-05-2018 01:50
Helder  
Helder  
   Wind: Oosten 11.1 km/h
Wind: Oosten 11.1 km/h
Temperatuur: 16°C
Dauwpunt: 15°C
Vochtigheid: 94%
Barometer: 1018 hPa
Zicht: meer dan 10 km
Bewolking: Helder
EDDL 252350Z 09006KT CAVOK 16/15 Q1018 NOSIG
EDLN - Monchengladbach, Germany
Afstand tot: Z 174 km
Gewijzigd: 25-05-2018 21:50
Verouderd
Helder  
Helder  
   Wind: ONO 5.6 km/h
Wind: ONO 5.6 km/h
Temperatuur: 21°C
Dauwpunt: 15°C
Vochtigheid: 69%
Barometer: 1018 hPa
Zicht: meer dan 10 km
Bewolking: Helder
EDLN 251950Z 06003KT CAVOK 21/15 Q1018

Script ontwikkeld door  Saratoga-weather.org Aangepast voor de template door  Weerstation Leuven

U vindt ons ook hier:

UK Metoffice

European Weather Network

WeatherCloud

Weather Underground

European Weather Network

AWEKAS

Citizen Weather Observer Program (CWOP)

HAMweather, WeatherForYou, PWS Weather

Wetterpage 24

Apparatuur in gebruik:

Weerstation
Davis VP2

Weerprogramma
Meteohub

Hardware
RaspberryPI, Wireless Weather Envoy, MeteoStick, Asus WL -330N3G

Leverancier
Weerhuisje.nl weerstations

Davis VP2

Meteohub

RaspberryPI, Wireless Weather Envoy, MeteoStick, Asus WL -330N3G

Weerhuisje.nl weerstations